Time,TemperatureF,DewpointF,PressureIn,WindDirection,WindDirectionDegrees,WindSpeedMPH,WindSpeedGustMPH,Humidity,HourlyPrecipIn,Conditions,Clouds,dailyrainin,SoftwareType,DateUTC
2013-02-26 00:01:00,27.7,10.2,30.19,NNE,19,0.0,0.0,47,0.00,,---,0.00,VWS V12.08,2013-02-26 05:01:00,
2013-02-26 00:21:00,27.0,9.6,30.19,NNE,19,0.0,0.0,47,0.00,,---,0.00,VWS V12.08,2013-02-26 05:21:00,
2013-02-26 00:41:00,26.6,9.2,30.22,NNE,19,0.0,0.0,47,0.00,,---,0.00,VWS V12.08,2013-02-26 05:41:00,
2013-02-26 01:01:00,26.2,9.4,30.25,NNE,19,0.0,0.0,48,0.00,,---,0.00,VWS V12.08,2013-02-26 06:01:00,
2013-02-26 01:21:00,26.1,9.8,30.25,NNE,19,0.0,0.0,50,0.00,,---,0.00,VWS V12.08,2013-02-26 06:21:00,
2013-02-26 01:41:00,26.1,9.8,30.25,NNE,19,0.0,0.0,50,0.00,,---,0.00,VWS V12.08,2013-02-26 06:41:00,
2013-02-26 02:01:00,25.7,9.4,30.25,NNE,19,0.0,0.0,50,0.00,,---,0.00,VWS V12.08,2013-02-26 07:01:00,
2013-02-26 02:21:00,25.7,9.4,30.22,NNE,19,0.0,0.0,50,0.00,,---,0.00,VWS V12.08,2013-02-26 07:21:00,
2013-02-26 02:41:00,25.3,9.1,30.25,NNE,19,0.0,0.0,50,0.00,,---,0.00,VWS V12.08,2013-02-26 07:41:00,
2013-02-26 03:01:00,25.2,8.9,30.25,NNE,19,0.0,0.0,50,0.00,,---,0.00,VWS V12.08,2013-02-26 08:01:00,
2013-02-26 03:21:00,25.0,8.8,30.25,NNE,19,0.0,0.0,50,0.00,,---,0.00,VWS V12.08,2013-02-26 08:21:00,
2013-02-26 03:41:00,24.4,8.7,30.25,NNE,19,0.0,0.0,51,0.00,,---,0.00,VWS V12.08,2013-02-26 08:41:00,
2013-02-26 04:01:00,24.8,9.1,30.22,NNE,20,0.0,0.0,51,0.00,,---,0.00,VWS V12.08,2013-02-26 09:01:00,
2013-02-26 04:21:00,24.6,8.9,30.22,NNE,19,0.0,0.0,51,0.00,,---,0.00,VWS V12.08,2013-02-26 09:21:00,
2013-02-26 04:41:00,24.6,8.9,30.22,NNE,19,0.0,0.0,51,0.00,,---,0.00,VWS V12.08,2013-02-26 09:41:00,
2013-02-26 05:01:00,24.4,8.7,30.22,NNE,19,0.0,0.0,51,0.00,,---,0.00,VWS V12.08,2013-02-26 10:01:00,
2013-02-26 05:21:00,24.4,8.7,30.22,NNE,19,0.0,0.0,51,0.00,,---,0.00,VWS V12.08,2013-02-26 10:21:00,
2013-02-26 05:41:00,24.1,8.9,30.22,NNE,19,0.0,0.0,52,0.00,,---,0.00,VWS V12.08,2013-02-26 10:41:00,
2013-02-26 06:01:00,24.4,8.7,30.19,NNE,19,0.0,0.0,51,0.00,,---,0.00,VWS V12.08,2013-02-26 11:01:00,
2013-02-26 06:21:00,24.4,9.2,30.19,NNE,19,0.0,0.0,52,0.00,,---,0.00,VWS V12.08,2013-02-26 11:21:00,
2013-02-26 06:41:00,24.4,9.2,30.22,NNE,19,0.0,0.0,52,0.00,,---,0.00,VWS V12.08,2013-02-26 11:41:00,
2013-02-26 07:01:00,24.8,9.6,30.22,NNE,19,0.0,0.0,52,0.00,,---,0.00,VWS V12.08,2013-02-26 12:01:00,
2013-02-26 07:21:00,25.5,10.7,30.22,NNE,19,0.0,0.0,53,0.00,,---,0.00,VWS V12.08,2013-02-26 12:21:00,
2013-02-26 07:41:00,26.6,11.7,30.22,NNE,20,0.0,0.0,53,0.00,,---,0.00,VWS V12.08,2013-02-26 12:41:00,
2013-02-26 08:01:00,27.9,13.3,30.25,NNE,19,0.0,0.0,54,0.00,,---,0.00,VWS V12.08,2013-02-26 13:01:00,
2013-02-26 08:21:00,29.5,15.3,30.25,ENE,76,0.0,0.0,55,0.00,,---,0.00,VWS V12.08,2013-02-26 13:21:00,
2013-02-26 08:41:00,30.9,16.7,30.25,ENE,76,0.0,0.0,55,0.00,,---,0.00,VWS V12.08,2013-02-26 13:41:00,
2013-02-26 09:01:00,34.0,16.0,30.22,East,91,5.4,6.3,47,0.00,,---,0.00,VWS V12.08,2013-02-26 14:01:00,
2013-02-26 09:21:00,36.1,16.9,30.22,SSE,150,5.4,6.3,45,0.00,,---,0.00,VWS V12.08,2013-02-26 14:21:00,
2013-02-26 09:41:00,37.4,17.5,30.25,ESE,116,2.7,8.3,44,0.00,,---,0.00,VWS V12.08,2013-02-26 14:41:00,
2013-02-26 10:01:00,38.7,18.6,30.22,East,81,3.1,8.3,44,0.00,,---,0.00,VWS V12.08,2013-02-26 15:01:00,
2013-02-26 10:21:00,40.5,19.7,30.25,SE,128,3.1,8.1,43,0.00,,---,0.00,VWS V12.08,2013-02-26 15:21:00,
2013-02-26 10:41:00,41.9,21.0,30.22,ESE,119,5.4,10.5,43,0.00,,---,0.00,VWS V12.08,2013-02-26 15:41:00,
2013-02-26 11:01:00,43.7,22.0,30.22,ESE,106,4.9,9.6,42,0.00,,---,0.00,VWS V12.08,2013-02-26 16:01:00,
2013-02-26 11:21:00,45.3,23.5,30.22,South,189,3.6,12.8,42,0.00,,---,0.00,VWS V12.08,2013-02-26 16:21:00,
2013-02-26 11:41:00,45.5,23.6,30.19,East,100,6.3,11.9,42,0.00,,---,0.00,VWS V12.08,2013-02-26 16:41:00,
2013-02-26 12:01:00,46.0,24.1,30.19,East,80,8.3,11.0,42,0.00,,---,0.00,VWS V12.08,2013-02-26 17:01:00,
2013-02-26 12:21:00,46.4,23.8,30.19,SE,127,8.3,13.2,41,0.00,,---,0.00,VWS V12.08,2013-02-26 17:21:00,
2013-02-26 12:41:00,46.4,23.8,30.19,ESE,118,10.5,12.8,41,0.00,,---,0.00,VWS V12.08,2013-02-26 17:41:00,
2013-02-26 13:01:00,46.9,24.3,30.16,East,98,10.5,11.4,41,0.00,,---,0.00,VWS V12.08,2013-02-26 18:01:00,
2013-02-26 13:21:00,46.0,24.1,30.16,ESE,109,6.3,11.9,42,0.00,,---,0.00,VWS V12.08,2013-02-26 18:21:00,
2013-02-26 13:41:00,45.3,23.5,30.16,ENE,57,5.8,11.9,42,0.00,,---,0.00,VWS V12.08,2013-02-26 18:41:00,
2013-02-26 14:00:00,45.1,23.3,30.16,ESE,107,5.8,12.8,42,0.00,,---,0.00,VWS V12.08,2013-02-26 19:00:00,
2013-02-26 14:20:00,44.8,23.0,30.13,South,173,5.8,13.2,42,0.00,,---,0.00,VWS V12.08,2013-02-26 19:20:00,
2013-02-26 14:40:00,44.8,23.0,30.13,ESE,122,5.8,14.1,42,0.00,,---,0.00,VWS V12.08,2013-02-26 19:40:00,
2013-02-26 15:00:00,44.2,22.5,30.10,SSE,165,11.0,15.4,42,0.00,,---,0.00,VWS V12.08,2013-02-26 20:00:00,
2013-02-26 15:20:00,43.7,22.0,30.10,SE,142,10.5,13.2,42,0.00,,---,0.00,VWS V12.08,2013-02-26 20:20:00,
2013-02-26 15:40:00,43.2,21.5,30.10,SE,127,5.8,12.8,42,0.00,,---,0.00,VWS V12.08,2013-02-26 20:40:00,
2013-02-26 16:00:00,42.6,21.6,30.07,ESE,111,7.6,15.0,43,0.00,,---,0.00,VWS V12.08,2013-02-26 21:00:00,
2013-02-26 16:20:00,42.3,21.3,30.07,SE,124,9.6,15.4,43,0.00,,---,0.00,VWS V12.08,2013-02-26 21:20:00,
2013-02-26 16:40:00,42.1,21.2,30.07,East,89,9.6,17.0,43,0.00,,---,0.00,VWS V12.08,2013-02-26 21:40:00,
2013-02-26 17:00:00,41.7,20.8,30.04,SE,129,3.1,15.4,43,0.00,,---,0.00,VWS V12.08,2013-02-26 22:00:00,
2013-02-26 17:20:00,41.4,20.5,30.04,ESE,117,8.7,17.0,43,0.00,,---,0.00,VWS V12.08,2013-02-26 22:20:00,
2013-02-26 17:40:00,41.2,20.3,30.04,ESE,104,8.1,15.4,43,0.00,,---,0.00,VWS V12.08,2013-02-26 22:40:00,
2013-02-26 18:00:00,40.8,20.6,30.04,SSE,148,8.1,15.0,44,0.00,,---,0.00,VWS V12.08,2013-02-26 23:00:00,
2013-02-26 18:20:00,40.5,20.3,30.01,East,86,12.3,12.3,44,0.00,,---,0.00,VWS V12.08,2013-02-26 23:20:00,
2013-02-26 18:40:00,40.3,20.1,29.98,ESE,107,12.8,15.4,44,0.00,,---,0.00,VWS V12.08,2013-02-26 23:40:00,
2013-02-26 19:00:00,40.1,20.0,29.98,East,88,8.3,15.0,44,0.00,,---,0.00,VWS V12.08,2013-02-27 00:00:00,
2013-02-26 19:20:00,39.9,19.8,29.98,SE,141,8.3,19.7,44,0.00,,---,0.00,VWS V12.08,2013-02-27 00:20:00,
2013-02-26 19:40:00,39.0,19.5,29.95,ESE,109,3.6,18.3,45,0.00,,---,0.00,VWS V12.08,2013-02-27 00:40:00,
2013-02-26 20:00:00,38.8,20.0,29.92,East,101,8.3,22.4,46,0.00,,---,0.00,VWS V12.08,2013-02-27 01:00:00,
2013-02-26 20:20:00,38.1,19.8,29.92,SE,139,10.1,19.7,47,0.00,,---,0.00,VWS V12.08,2013-02-27 01:20:00,
2013-02-26 20:40:00,38.1,19.8,29.92,East,84,5.8,15.4,47,0.00,,---,0.00,VWS V12.08,2013-02-27 01:40:00,
2013-02-26 21:01:00,38.1,22.4,29.92,SE,138,2.7,17.0,53,0.00,,---,0.00,VWS V12.08,2013-02-27 02:01:00,
2013-02-26 21:21:00,37.6,23.4,29.89,SE,127,6.3,15.0,56,0.04,,---,0.04,VWS V12.08,2013-02-27 02:21:00,
2013-02-26 21:41:00,37.4,23.2,29.83,ENE,64,9.2,15.4,56,0.04,,---,0.04,VWS V12.08,2013-02-27 02:41:00,
2013-02-26 22:01:00,37.2,23.0,29.83,South,176,8.7,17.0,56,0.04,,---,0.04,VWS V12.08,2013-02-27 03:01:00,
2013-02-26 22:21:00,37.0,23.8,29.83,ENE,72,11.9,15.9,58,0.08,,---,0.08,VWS V12.08,2013-02-27 03:21:00,
2013-02-26 22:41:00,37.2,23.9,29.80,NE,49,10.1,15.4,58,0.04,,---,0.08,VWS V12.08,2013-02-27 03:41:00,
2013-02-26 23:01:00,37.4,25.0,29.80,East,98,10.1,15.9,60,0.12,,---,0.16,VWS V12.08,2013-02-27 04:01:00,
2013-02-26 23:21:00,37.6,25.2,29.78,ENE,75,7.6,15.4,60,0.16,,---,0.20,VWS V12.08,2013-02-27 04:21:00,
2013-02-26 23:41:00,37.6,25.2,29.78,SE,131,11.0,16.8,60,0.16,,---,0.24,VWS V12.08,2013-02-27 04:41:00,